createdAt,value
2019-05-23T00:02:12.751Z,2.30
2019-05-23T00:06:40.403Z,2.23
2019-05-23T00:11:24.795Z,2.63
2019-05-23T00:15:42.288Z,2.50
2019-05-23T00:19:52.422Z,2.07
2019-05-23T00:24:00.268Z,2.07
2019-05-23T00:28:08.993Z,2.10
2019-05-23T00:32:32.424Z,2.23
2019-05-23T00:36:42.072Z,2.10
2019-05-23T00:40:50.858Z,2.07
2019-05-23T00:44:59.219Z,1.90
2019-05-23T00:49:09.649Z,2.20
2019-05-23T00:53:18.612Z,2.30
2019-05-23T00:57:27.711Z,2.40
2019-05-23T01:01:37.856Z,2.13
2019-05-23T01:05:46.730Z,2.10
2019-05-23T01:09:54.740Z,1.90
2019-05-23T01:14:03.683Z,2.07
2019-05-23T01:18:13.814Z,2.07
2019-05-23T01:22:26.388Z,2.30
2019-05-23T01:26:34.470Z,2.50
2019-05-23T01:30:45.397Z,2.37
2019-05-23T01:34:55.341Z,3.40
2019-05-23T01:39:04.466Z,3.40
2019-05-23T01:43:14.618Z,3.30
2019-05-23T01:47:23.500Z,5.00
2019-05-23T01:51:32.598Z,5.17
2019-05-23T01:55:40.891Z,7.40
2019-05-23T02:00:06.114Z,4.40
2019-05-23T02:03:59.949Z,2.33
2019-05-23T02:08:11.737Z,4.60
2019-05-23T02:12:20.588Z,4.30
2019-05-23T02:16:29.357Z,4.10
2019-05-23T02:20:37.231Z,4.27
2019-05-23T02:24:46.658Z,3.77
2019-05-23T02:28:55.384Z,3.20
2019-05-23T02:33:03.711Z,2.10
2019-05-23T02:37:31.119Z,1.80
2019-05-23T02:41:55.241Z,1.90
2019-05-23T02:46:08.350Z,1.70
2019-05-23T02:50:23.830Z,1.60
2019-05-23T02:54:37.289Z,1.80
2019-05-23T02:59:42.301Z,1.67
2019-05-23T03:03:51.642Z,1.90
2019-05-23T03:08:04.691Z,4.37
2019-05-23T03:12:15.576Z,4.57
2019-05-23T03:16:24.412Z,3.17
2019-05-23T03:20:35.192Z,3.70
2019-05-23T03:24:43.469Z,3.20
2019-05-23T03:28:52.412Z,1.67
2019-05-23T03:33:02.531Z,2.00
2019-05-23T03:37:11.026Z,1.80
2019-05-23T03:41:18.682Z,1.57
2019-05-23T03:45:30.689Z,1.23
2019-05-23T03:49:39.920Z,1.60
2019-05-23T03:53:49.456Z,1.37
2019-05-23T03:57:57.885Z,1.20
2019-05-23T04:02:09.481Z,9.50
2019-05-23T04:06:17.430Z,12.37
2019-05-23T04:10:25.863Z,13.60
2019-05-23T04:14:33.972Z,15.37
2019-05-23T04:18:42.322Z,15.77
2019-05-23T04:22:50.790Z,18.07
2019-05-23T04:26:58.273Z,21.53
2019-05-23T04:31:07.737Z,25.30
2019-05-23T04:35:15.912Z,32.57
2019-05-23T04:39:24.711Z,30.70
2019-05-23T04:43:32.204Z,29.10
2019-05-23T04:47:40.756Z,32.13
2019-05-23T04:51:49.097Z,33.47
2019-05-23T04:55:56.733Z,33.47
2019-05-23T05:00:06.546Z,33.73
2019-05-23T05:04:15.472Z,28.53
2019-05-23T05:08:22.980Z,31.63
2019-05-23T05:12:31.489Z,28.37
2019-05-23T05:16:39.061Z,28.83
2019-05-23T05:20:47.609Z,29.00
2019-05-23T05:24:55.700Z,32.23
2019-05-23T05:29:05.292Z,26.60
2019-05-23T05:33:13.737Z,36.43
2019-05-23T05:37:21.732Z,41.30
2019-05-23T05:41:29.250Z,43.03
2019-05-23T05:45:37.608Z,34.47
2019-05-23T05:49:46.090Z,29.20
2019-05-23T05:53:53.972Z,29.07
2019-05-23T05:58:02.918Z,25.80
2019-05-23T06:02:12.893Z,14.57
2019-05-23T06:06:32.303Z,2.07
2019-05-23T06:10:40.290Z,1.73
2019-05-23T06:14:47.868Z,1.60
2019-05-23T06:18:56.143Z,1.20
2019-05-23T06:23:05.531Z,1.23
2019-05-23T06:27:14.579Z,1.20
2019-05-23T06:31:23.465Z,1.30
2019-05-23T06:35:30.946Z,1.10
2019-05-23T06:39:39.969Z,1.40
2019-05-23T06:43:48.322Z,1.20
2019-05-23T06:47:55.917Z,1.10
2019-05-23T06:52:04.768Z,1.27
2019-05-23T06:56:13.814Z,0.80
2019-05-23T07:00:25.096Z,1.30
2019-05-23T07:04:33.253Z,2.87
2019-05-23T07:08:40.713Z,1.13
2019-05-23T07:12:48.745Z,1.40
2019-05-23T07:16:56.325Z,1.07
2019-05-23T07:21:05.817Z,0.90
2019-05-23T07:25:14.460Z,0.95
2019-05-23T07:29:22.236Z,1.23
2019-05-23T07:33:30.665Z,1.00
2019-05-23T07:37:38.335Z,1.02
2019-05-23T07:41:46.387Z,1.00
2019-05-23T07:45:59.351Z,1.00
2019-05-23T07:50:07.178Z,1.13
2019-05-23T07:54:29.053Z,1.20
2019-05-23T07:58:38.299Z,1.40
2019-05-23T08:02:49.306Z,1.20
2019-05-23T08:06:57.970Z,2.50
2019-05-23T08:11:05.960Z,1.10
2019-05-23T08:15:17.252Z,1.00
2019-05-23T08:19:25.018Z,1.47
2019-05-23T08:23:34.686Z,1.00
2019-05-23T08:27:44.624Z,1.10
2019-05-23T08:31:52.679Z,1.42
2019-05-23T08:36:02.383Z,1.02
2019-05-23T08:40:11.232Z,1.05
2019-05-23T08:44:20.531Z,9.68
2019-05-23T08:48:29.541Z,0.80
2019-05-23T08:52:37.228Z,1.07
2019-05-23T08:56:45.924Z,1.30
2019-05-23T09:00:55.060Z,1.27
2019-05-23T09:05:06.452Z,1.10
2019-05-23T09:09:29.061Z,3.70
2019-05-23T09:13:24.878Z,1.15
2019-05-23T09:17:49.757Z,0.90
2019-05-23T09:21:43.751Z,1.00
2019-05-23T09:25:51.564Z,1.00
2019-05-23T09:30:00.637Z,0.80
2019-05-23T09:34:09.396Z,0.90
2019-05-23T09:38:17.037Z,0.90
2019-05-23T09:42:25.291Z,0.80
2019-05-23T09:46:32.854Z,0.70
2019-05-23T09:50:41.410Z,1.00
2019-05-23T09:54:49.496Z,0.90
2019-05-23T09:58:57.156Z,0.80
2019-05-23T10:03:07.289Z,0.80
2019-05-23T10:07:16.515Z,1.10
2019-05-23T10:11:24.079Z,1.00
2019-05-23T10:15:51.678Z,1.47
2019-05-23T10:19:59.137Z,0.82
2019-05-23T10:24:06.792Z,1.60
2019-05-23T10:28:15.637Z,1.05
2019-05-23T10:32:23.079Z,1.20
2019-05-23T10:36:31.147Z,1.45
2019-05-23T10:40:40.243Z,1.30
2019-05-23T10:44:47.790Z,1.10
2019-05-23T10:48:56.523Z,0.98
2019-05-23T10:53:05.152Z,1.22
2019-05-23T10:57:12.790Z,0.75
2019-05-23T11:01:21.692Z,1.20
2019-05-23T11:05:29.620Z,0.85
2019-05-23T11:09:38.668Z,1.17
2019-05-23T11:13:46.845Z,1.15
2019-05-23T11:17:54.764Z,0.93
2019-05-23T11:22:03.379Z,0.90
2019-05-23T11:26:11.705Z,1.30
2019-05-23T11:30:27.250Z,1.57
2019-05-23T11:34:35.697Z,1.75
2019-05-23T11:38:43.348Z,1.20
2019-05-23T11:42:52.801Z,1.00
2019-05-23T11:47:01.900Z,0.93
2019-05-23T11:51:09.773Z,1.10
2019-05-23T11:55:18.211Z,1.10
2019-05-23T11:59:26.753Z,1.12
2019-05-23T12:03:34.506Z,0.80
2019-05-23T12:07:45.433Z,1.10
2019-05-23T12:11:53.155Z,1.10
2019-05-23T12:16:02.267Z,1.12
2019-05-23T12:20:10.213Z,0.90
2019-05-23T12:24:18.971Z,1.00
2019-05-23T12:28:28.529Z,1.15
2019-05-23T12:32:36.118Z,1.10
2019-05-23T12:36:44.141Z,1.20
2019-05-23T12:40:52.215Z,1.10
2019-05-23T12:44:59.822Z,1.32
2019-05-23T12:49:38.926Z,1.30
2019-05-23T12:53:47.427Z,1.32
2019-05-23T12:57:55.349Z,1.17
2019-05-23T13:02:05.512Z,1.30
2019-05-23T13:06:15.031Z,1.37
2019-05-23T13:10:25.022Z,1.37
2019-05-23T13:14:33.847Z,1.40
2019-05-23T13:18:41.588Z,1.40
2019-05-23T13:22:49.786Z,1.30
2019-05-23T13:26:57.805Z,1.45
2019-05-23T13:31:05.771Z,1.50
2019-05-23T13:35:14.765Z,1.40
2019-05-23T13:39:22.313Z,1.40
2019-05-23T13:43:30.765Z,1.37
2019-05-23T13:47:38.838Z,1.27
2019-05-23T13:51:47.123Z,1.40
2019-05-23T13:55:55.899Z,1.70
2019-05-23T14:00:04.233Z,1.57
2019-05-23T14:04:12.406Z,1.90
2019-05-23T14:08:21.294Z,1.50
2019-05-23T14:12:28.972Z,1.90
2019-05-23T14:16:56.214Z,1.55
2019-05-23T14:21:05.024Z,1.72
2019-05-23T14:25:12.697Z,1.87
2019-05-23T14:29:21.196Z,1.70
2019-05-23T14:34:00.016Z,1.60
2019-05-23T14:38:09.855Z,1.35
2019-05-23T14:42:35.861Z,1.35
2019-05-23T14:46:54.537Z,1.22
2019-05-23T14:51:19.597Z,1.20
2019-05-23T14:55:27.867Z,1.15
2019-05-23T14:59:36.554Z,1.72
2019-05-23T15:03:44.769Z,1.50
2019-05-23T15:07:52.328Z,1.42
2019-05-23T15:12:01.852Z,1.20
2019-05-23T15:16:10.029Z,1.07
2019-05-23T15:20:17.862Z,1.25
2019-05-23T15:24:26.219Z,1.60
2019-05-23T15:28:33.774Z,1.42
2019-05-23T15:32:42.313Z,1.50
2019-05-23T15:36:50.760Z,1.30
2019-05-23T15:40:58.591Z,1.60
2019-05-23T15:45:07.685Z,1.37
2019-05-23T15:49:15.931Z,1.42
2019-05-23T15:53:42.818Z,1.42
2019-05-23T15:57:59.746Z,1.65
2019-05-23T16:02:32.030Z,1.90
2019-05-23T16:06:41.611Z,1.90
2019-05-23T16:10:50.141Z,1.65
2019-05-23T16:14:57.839Z,1.75
2019-05-23T16:19:07.018Z,1.87
2019-05-23T16:23:15.623Z,1.90
2019-05-23T16:27:23.814Z,4.33
2019-05-23T16:31:32.294Z,3.75
2019-05-23T16:35:39.757Z,3.10
2019-05-23T16:39:50.012Z,5.60
2019-05-23T16:43:58.464Z,9.43
2019-05-23T16:48:07.388Z,2.15
2019-05-23T16:52:15.652Z,2.17
2019-05-23T16:56:29.549Z,2.35
2019-05-23T17:01:06.123Z,2.40
2019-05-23T17:05:34.448Z,3.22
2019-05-23T17:10:08.236Z,2.55
2019-05-23T17:14:16.655Z,2.25
2019-05-23T17:18:43.586Z,2.37
2019-05-23T17:23:07.248Z,2.45
2019-05-23T17:27:49.859Z,2.77
2019-05-23T17:31:59.783Z,3.20
2019-05-23T17:36:08.193Z,4.03
2019-05-23T17:40:24.864Z,2.65
2019-05-23T17:44:27.705Z,2.42
2019-05-23T17:48:35.571Z,3.20
2019-05-23T17:52:44.428Z,6.93
2019-05-23T17:56:51.923Z,6.10
2019-05-23T18:01:00.699Z,3.33
2019-05-23T18:05:09.049Z,3.73
2019-05-23T18:09:17.242Z,7.33
2019-05-23T18:13:25.746Z,5.63
2019-05-23T18:17:33.797Z,5.60
2019-05-23T18:21:42.227Z,6.00
2019-05-23T18:25:50.232Z,4.73
2019-05-23T18:29:59.515Z,4.07
2019-05-23T18:34:09.505Z,4.10
2019-05-23T18:38:18.357Z,3.60
2019-05-23T18:42:26.508Z,3.67
2019-05-23T18:46:39.208Z,3.53
2019-05-23T18:50:48.058Z,3.57
2019-05-23T18:54:56.537Z,3.73
2019-05-23T18:59:05.869Z,3.90
2019-05-23T19:03:14.739Z,3.40
2019-05-23T19:07:22.982Z,4.00
2019-05-23T19:11:31.437Z,4.47
2019-05-23T19:15:40.363Z,5.00
2019-05-23T19:19:48.799Z,6.03
2019-05-23T19:23:57.586Z,6.37
2019-05-23T19:28:05.871Z,5.30
2019-05-23T19:32:14.521Z,5.93
2019-05-23T19:36:23.906Z,6.63
2019-05-23T19:40:32.914Z,7.13
2019-05-23T19:44:40.845Z,7.20
2019-05-23T19:48:48.635Z,7.47
2019-05-23T19:52:57.108Z,8.20
2019-05-23T19:57:05.338Z,7.93
2019-05-23T20:01:14.464Z,9.27
2019-05-23T20:05:41.716Z,9.13
2019-05-23T20:09:50.183Z,10.00
2019-05-23T20:13:57.779Z,9.20
2019-05-23T20:18:06.797Z,9.90
2019-05-23T20:22:15.751Z,8.37
2019-05-23T20:26:23.297Z,7.00
2019-05-23T20:30:59.830Z,6.53
2019-05-23T20:35:08.544Z,6.47
2019-05-23T20:39:17.314Z,6.27
2019-05-23T20:43:26.116Z,5.80
2019-05-23T20:47:34.757Z,4.90
2019-05-23T20:51:42.246Z,6.60
2019-05-23T20:55:50.244Z,6.33
2019-05-23T20:59:57.718Z,6.43
2019-05-23T21:04:06.468Z,6.10
2019-05-23T21:08:14.802Z,5.90
2019-05-23T21:12:30.078Z,5.40
2019-05-23T21:16:32.602Z,4.60
2019-05-23T21:20:40.277Z,5.50
2019-05-23T21:24:48.074Z,4.77
2019-05-23T21:28:56.445Z,4.83
2019-05-23T21:33:03.951Z,6.17
2019-05-23T21:37:12.841Z,7.77
2019-05-23T21:41:21.202Z,11.20
2019-05-23T21:45:28.640Z,9.57
2019-05-23T21:49:36.626Z,3.37
2019-05-23T21:53:44.085Z,2.30
2019-05-23T21:57:51.588Z,2.20
2019-05-23T22:02:11.911Z,2.27
2019-05-23T22:06:21.120Z,2.53
2019-05-23T22:10:45.371Z,2.20
2019-05-23T22:14:55.298Z,2.17
2019-05-23T22:19:04.648Z,2.20
2019-05-23T22:23:13.108Z,2.40
2019-05-23T22:27:21.542Z,2.47
2019-05-23T22:31:29.855Z,3.03
2019-05-23T22:35:38.191Z,2.73
2019-05-23T22:39:45.966Z,3.10
2019-05-23T22:43:54.014Z,3.20
2019-05-23T22:48:02.644Z,3.57
2019-05-23T22:52:10.295Z,3.37
2019-05-23T22:56:18.883Z,3.10
2019-05-23T23:00:32.828Z,3.00
2019-05-23T23:04:41.301Z,3.40
2019-05-23T23:08:49.877Z,2.97
2019-05-23T23:12:57.507Z,3.43
2019-05-23T23:17:06.094Z,3.07
2019-05-23T23:21:14.850Z,3.30
2019-05-23T23:25:22.353Z,2.80
2019-05-23T23:29:30.972Z,2.70
2019-05-23T23:33:40.242Z,2.87
2019-05-23T23:37:48.729Z,2.40
2019-05-23T23:41:56.736Z,2.90
2019-05-23T23:46:22.337Z,2.40
2019-05-23T23:50:47.921Z,2.90
2019-05-23T23:55:13.840Z,2.70
2019-05-23T23:59:20.379Z,3.00
